createdAt,value
2022-08-11T00:04:35.001Z,46.07
2022-08-11T00:09:40.207Z,46.54
2022-08-11T00:14:44.600Z,45.92
2022-08-11T00:20:13.184Z,46.45
2022-08-11T00:25:23.277Z,46.04
2022-08-11T00:30:26.261Z,45.92
2022-08-11T00:35:55.429Z,46.04
2022-08-11T00:41:20.297Z,46.22
2022-08-11T00:46:26.266Z,46.37
2022-08-11T00:52:02.254Z,46.39
2022-08-11T00:57:45.687Z,46.62
2022-08-11T01:03:39.212Z,46.95
2022-08-11T01:08:57.748Z,46.88
2022-08-11T01:14:15.540Z,46.95
2022-08-11T01:19:21.891Z,46.70
2022-08-11T01:24:52.535Z,46.94
2022-08-11T01:30:32.179Z,47.51
2022-08-11T01:36:42.504Z,47.13
2022-08-11T01:42:53.834Z,47.32
2022-08-11T01:48:32.127Z,47.52
2022-08-11T01:54:09.545Z,47.40
2022-08-11T01:59:39.431Z,47.60
2022-08-11T02:05:03.174Z,47.64
2022-08-11T02:11:25.304Z,47.48
2022-08-11T02:16:49.331Z,48.26
2022-08-11T02:22:32.558Z,48.31
2022-08-11T02:28:09.742Z,48.31
2022-08-11T02:33:27.629Z,47.97
2022-08-11T02:38:45.676Z,48.29
2022-08-11T02:44:36.675Z,47.90
2022-08-11T02:50:03.482Z,48.27
2022-08-11T02:55:57.561Z,48.42
2022-08-11T03:01:21.796Z,48.49
2022-08-11T03:06:36.728Z,48.72
2022-08-11T03:12:22.880Z,48.61
2022-08-11T03:17:37.024Z,48.59
2022-08-11T03:23:03.866Z,48.47
2022-08-11T03:28:29.346Z,48.62
2022-08-11T03:34:06.725Z,49.02
2022-08-11T03:39:37.313Z,49.23
2022-08-11T03:45:01.297Z,49.26
2022-08-11T03:50:40.023Z,49.44
2022-08-11T03:56:39.974Z,50.15
2022-08-11T04:02:38.616Z,50.14
2022-08-11T04:08:20.913Z,50.58
2022-08-11T04:14:42.409Z,50.84
2022-08-11T04:19:53.294Z,51.06
2022-08-11T04:25:26.220Z,51.28
2022-08-11T04:31:05.989Z,51.18
2022-08-11T04:36:52.845Z,51.34
2022-08-11T04:42:18.979Z,51.63
2022-08-11T04:48:05.588Z,51.53
2022-08-11T04:53:47.951Z,51.28
2022-08-11T04:59:45.015Z,51.80
2022-08-11T05:05:33.719Z,51.25
2022-08-11T05:11:16.606Z,50.60
2022-08-11T05:16:49.704Z,48.70
2022-08-11T05:22:16.699Z,48.46
2022-08-11T05:27:40.148Z,48.30
2022-08-11T05:33:15.434Z,46.60
2022-08-11T05:38:45.134Z,45.56
2022-08-11T05:44:20.175Z,45.42
2022-08-11T05:49:47.845Z,44.72
2022-08-11T05:55:10.618Z,45.21
2022-08-11T06:00:15.743Z,44.45
2022-08-11T06:05:19.583Z,44.03
2022-08-11T06:10:35.775Z,44.29
2022-08-11T06:15:50.151Z,43.04
2022-08-11T06:20:58.783Z,42.01
2022-08-11T06:26:02.375Z,41.73
2022-08-11T06:31:13.877Z,41.24
2022-08-11T06:36:34.725Z,40.95
2022-08-11T06:41:52.300Z,40.32
2022-08-11T06:47:01.140Z,39.93
2022-08-11T06:52:45.123Z,39.99
2022-08-11T06:57:57.921Z,39.45
2022-08-11T07:03:12.247Z,38.93
2022-08-11T07:09:28.308Z,38.75
2022-08-11T07:14:51.390Z,38.37
2022-08-11T07:20:19.293Z,38.23
2022-08-11T07:25:43.364Z,38.48
2022-08-11T07:30:47.712Z,38.37
2022-08-11T07:36:00.272Z,37.19
2022-08-11T07:41:03.300Z,38.08
2022-08-11T07:46:26.300Z,38.04
2022-08-11T07:51:47.964Z,37.67
2022-08-11T07:57:07.578Z,37.17
2022-08-11T08:02:31.915Z,36.76
2022-08-11T08:07:56.012Z,36.65
2022-08-11T08:13:17.644Z,36.61
2022-08-11T08:18:26.844Z,36.50
2022-08-11T08:23:34.225Z,36.15
2022-08-11T08:28:37.533Z,36.32
2022-08-11T08:33:42.253Z,35.24
2022-08-11T08:38:52.871Z,35.25
2022-08-11T08:44:27.736Z,34.88
2022-08-11T08:49:42.109Z,33.76
2022-08-11T08:54:55.889Z,33.43
2022-08-11T09:00:00.284Z,32.91
2022-08-11T09:05:05.288Z,32.48
2022-08-11T09:10:11.579Z,32.09
2022-08-11T09:15:19.664Z,31.72
2022-08-11T09:20:26.714Z,32.07
2022-08-11T09:25:52.498Z,29.49
2022-08-11T09:30:55.746Z,30.42
2022-08-11T09:36:20.410Z,30.20
2022-08-11T09:41:25.586Z,29.43
2022-08-11T09:46:30.898Z,28.66
2022-08-11T09:51:34.453Z,28.09
2022-08-11T09:56:56.416Z,28.50
2022-08-11T10:02:03.593Z,27.45
2022-08-11T10:07:10.815Z,28.25
2022-08-11T10:12:42.542Z,27.62
2022-08-11T10:18:11.843Z,27.67
2022-08-11T10:23:33.291Z,27.99
2022-08-11T10:28:55.945Z,27.77
2022-08-11T10:34:02.053Z,27.75
2022-08-11T10:39:06.805Z,26.87
2022-08-11T10:44:11.841Z,26.32
2022-08-11T10:49:17.322Z,26.48
2022-08-11T10:54:41.422Z,27.36
2022-08-11T10:59:47.472Z,25.70
2022-08-11T11:05:12.764Z,24.33
2022-08-11T11:10:16.652Z,23.74
2022-08-11T11:15:42.046Z,22.55
2022-08-11T11:21:14.570Z,21.97
2022-08-11T11:27:00.805Z,22.03
2022-08-11T11:32:28.252Z,23.41
2022-08-11T11:37:37.033Z,25.54
2022-08-11T11:42:42.172Z,26.00
2022-08-11T11:47:45.670Z,26.47
2022-08-11T11:52:48.734Z,26.19
2022-08-11T11:58:18.596Z,25.84
2022-08-11T12:03:24.036Z,25.11
2022-08-11T12:08:28.089Z,25.69
2022-08-11T12:13:40.679Z,25.05
2022-08-11T12:18:46.578Z,24.67
2022-08-11T12:24:10.997Z,24.74
2022-08-11T12:29:14.918Z,25.04
2022-08-11T12:34:18.188Z,25.45
2022-08-11T12:40:10.773Z,25.25
2022-08-11T12:45:27.771Z,25.53
2022-08-11T12:50:49.928Z,25.28
2022-08-11T12:56:16.698Z,25.28
2022-08-11T13:01:39.620Z,26.08
2022-08-11T13:06:43.343Z,26.31
2022-08-11T13:12:05.612Z,26.72
2022-08-11T13:17:43.923Z,26.12
2022-08-11T13:22:50.421Z,26.30
2022-08-11T13:28:01.474Z,26.18
2022-08-11T13:33:07.671Z,26.29
2022-08-11T13:38:18.302Z,26.95
2022-08-11T13:43:24.539Z,26.04
2022-08-11T13:48:28.397Z,26.26
2022-08-11T13:53:32.665Z,26.51
2022-08-11T13:58:39.620Z,26.28
2022-08-11T14:04:30.203Z,25.77
2022-08-11T14:09:10.282Z,26.31
2022-08-11T14:14:22.873Z,25.68
2022-08-11T14:19:27.170Z,26.19
2022-08-11T14:24:31.727Z,25.61
2022-08-11T14:29:45.218Z,25.93
2022-08-11T14:34:53.505Z,26.59
2022-08-11T14:40:21.848Z,26.21
2022-08-11T14:45:54.120Z,26.84
2022-08-11T14:51:01.920Z,26.71
2022-08-11T14:56:24.539Z,26.34
2022-08-11T15:01:46.730Z,26.08
2022-08-11T15:06:50.462Z,26.84
2022-08-11T15:12:31.109Z,27.73
2022-08-11T15:17:43.319Z,27.83
2022-08-11T15:23:05.396Z,28.15
2022-08-11T15:28:28.736Z,27.79
2022-08-11T15:34:07.651Z,28.55
2022-08-11T15:39:24.984Z,28.90
2022-08-11T15:45:02.659Z,29.10
2022-08-11T15:50:13.683Z,29.71
2022-08-11T15:55:17.476Z,29.57
2022-08-11T16:00:39.318Z,29.82
2022-08-11T16:05:46.700Z,29.87
2022-08-11T16:10:57.935Z,29.72
2022-08-11T16:16:15.080Z,30.34
2022-08-11T16:21:34.322Z,30.43
2022-08-11T16:27:08.912Z,30.55
2022-08-11T16:32:20.867Z,31.15
2022-08-11T16:37:43.029Z,31.11
2022-08-11T16:43:10.683Z,30.76
2022-08-11T16:48:37.344Z,31.43
2022-08-11T16:53:54.872Z,30.98
2022-08-11T16:59:15.257Z,32.18
2022-08-11T17:05:10.868Z,33.67
2022-08-11T17:11:04.265Z,34.94
2022-08-11T17:16:13.658Z,36.33
2022-08-11T17:21:27.237Z,37.44
2022-08-11T17:26:57.115Z,38.03
2022-08-11T17:32:22.543Z,38.34
2022-08-11T17:37:27.276Z,38.44
2022-08-11T17:42:53.138Z,39.07
2022-08-11T17:48:17.449Z,39.33
2022-08-11T17:53:39.653Z,39.29
2022-08-11T17:59:02.010Z,38.91
2022-08-11T18:04:12.386Z,39.00
2022-08-11T18:09:39.985Z,38.78
2022-08-11T18:15:07.203Z,38.50
2022-08-11T18:20:29.130Z,38.78
2022-08-11T18:25:57.514Z,38.68
2022-08-11T18:31:23.560Z,38.70
2022-08-11T18:36:53.924Z,38.58
2022-08-11T18:42:29.131Z,38.73
2022-08-11T18:47:53.417Z,38.91
2022-08-11T18:53:20.303Z,39.06
2022-08-11T18:58:50.677Z,39.02
2022-08-11T19:04:17.257Z,39.28
2022-08-11T19:09:42.008Z,39.81
2022-08-11T19:15:06.683Z,39.75
2022-08-11T19:20:42.185Z,39.63
2022-08-11T19:26:06.184Z,39.78
2022-08-11T19:31:29.324Z,39.86
2022-08-11T19:36:51.822Z,40.04
2022-08-11T19:42:15.711Z,39.94
2022-08-11T19:47:39.305Z,40.05
2022-08-11T19:53:01.188Z,40.44
2022-08-11T19:58:23.746Z,40.66
2022-08-11T20:03:45.642Z,41.07
2022-08-11T20:09:09.287Z,41.09
2022-08-11T20:14:32.034Z,41.23
2022-08-11T20:19:57.244Z,41.25
2022-08-11T20:25:19.541Z,41.38
2022-08-11T20:30:41.988Z,41.49
2022-08-11T20:36:04.686Z,41.38
2022-08-11T20:41:29.238Z,41.71
2022-08-11T20:46:51.497Z,41.98
2022-08-11T20:52:13.319Z,41.73
2022-08-11T20:57:59.945Z,42.71
2022-08-11T21:03:35.307Z,43.13
2022-08-11T21:09:01.015Z,43.77
2022-08-11T21:14:26.904Z,44.62
2022-08-11T21:20:01.445Z,44.76
2022-08-11T21:25:32.755Z,44.63
2022-08-11T21:30:57.617Z,44.48
2022-08-11T21:36:21.700Z,45.12
2022-08-11T21:41:49.083Z,45.17
2022-08-11T21:47:12.406Z,45.17
2022-08-11T21:52:34.725Z,45.38
2022-08-11T21:57:56.475Z,45.60
2022-08-11T22:03:18.992Z,45.71
2022-08-11T22:08:41.417Z,45.89
2022-08-11T22:14:06.271Z,45.82
2022-08-11T22:19:32.094Z,46.34
2022-08-11T22:24:56.181Z,46.76
2022-08-11T22:30:18.834Z,47.02
2022-08-11T22:35:42.678Z,47.20
2022-08-11T22:41:04.239Z,47.55
2022-08-11T22:46:26.917Z,47.54
2022-08-11T22:51:48.906Z,47.75
2022-08-11T22:57:11.089Z,47.48
2022-08-11T23:02:33.294Z,47.88
2022-08-11T23:07:56.303Z,47.98
2022-08-11T23:13:22.313Z,48.13
2022-08-11T23:18:45.608Z,48.13
2022-08-11T23:24:09.412Z,48.39
2022-08-11T23:29:32.042Z,48.69
2022-08-11T23:35:39.954Z,48.75
2022-08-11T23:40:44.724Z,48.55
2022-08-11T23:46:06.536Z,48.69
2022-08-11T23:51:40.768Z,49.20
2022-08-11T23:57:03.212Z,49.31
